Time;durP1;ratioP1;P1;durP2;ratioP2;P2;SDS_P1;SDS_P2;PMS_P1;PMS_P2;Temp;Humidity;BMP_temperature;BMP_pressure;BME280_temperature;BME280_humidity;BME280_pressure;Samples;Min_cycle;Max_cycle;Signal;HPM_P1;HPM_P2
2022/01/31 00:00:29;;;;;;;17.40;7.23;;;;;;;3.50;79.69;101435.34;6466402;23;20334;-76
2022/01/31 00:03:02;;;;;;;33.67;9.40;;;;;;;3.53;79.37;101427.69;6466906;23;20415;-73
2022/01/31 00:05:33;;;;;;;29.30;7.72;;;;;;;3.57;79.51;101388.25;6466456;23;20007;-74
2022/01/31 00:08:05;;;;;;;23.97;7.80;;;;;;;3.58;79.63;101369.38;6466959;23;20407;-75
2022/01/31 00:10:36;;;;;;;19.37;6.80;;;;;;;3.58;79.28;101348.75;6466854;23;20012;-74
2022/01/31 00:13:12;;;;;;;23.00;7.57;;;;;;;3.57;79.86;101336.69;6467360;23;20051;-72
2022/01/31 00:15:47;;;;;;;24.83;6.40;;;;;;;3.62;79.76;101324.81;6466088;23;20012;-73
2022/01/31 00:18:18;;;;;;;18.38;7.20;;;;;;;3.61;79.83;101324.78;6466515;23;20423;-73
2022/01/31 00:20:51;;;;;;;21.37;6.80;;;;;;;3.65;79.68;101327.47;6466088;23;20007;-74
2022/01/31 00:23:22;;;;;;;;;;;;;;;3.72;79.36;101319.84;6466539;23;20532;-74
2022/01/31 00:25:54;;;;;;;26.27;6.97;;;;;;;3.70;79.72;101303.50;6466125;23;19908;-73
2022/01/31 00:28:25;;;;;;;22.57;6.33;;;;;;;3.72;79.75;101288.91;6466327;23;20009;-74
2022/01/31 00:30:57;;;;;;;24.00;7.67;;;;;;;3.71;80.06;101285.47;6465924;23;20004;-71
2022/01/31 00:33:28;;;;;;;25.93;6.13;;;;;;;3.74;80.57;101280.41;6465969;23;20017;-73
2022/01/31 00:35:59;;;;;;;20.33;6.67;;;;;;;3.75;81.02;101268.34;6465663;23;20004;-76
2022/01/31 00:38:30;;;;;;;21.43;7.23;;;;;;;3.75;80.99;101251.22;6466254;23;20431;-74
2022/01/31 00:41:03;;;;;;;21.10;7.67;;;;;;;3.68;82.10;101243.28;6464283;23;20043;-74
2022/01/31 00:43:36;;;;;;;23.58;7.72;;;;;;;3.68;82.75;101227.81;6466229;23;20013;-74
2022/01/31 00:46:12;;;;;;;22.00;7.82;;;;;;;3.48;84.68;101197.31;6465024;23;20030;-72
2022/01/31 00:48:46;;;;;;;22.73;6.63;;;;;;;3.37;86.60;101202.19;6465766;23;20012;-74
2022/01/31 00:51:17;;;;;;;22.35;7.75;;;;;;;3.35;88.00;101200.41;6466264;23;20059;-73
2022/01/31 00:53:48;;;;;;;23.80;8.27;;;;;;;3.21;89.67;101184.66;6466781;23;20009;-74
2022/01/31 00:56:20;;;;;;;25.77;8.70;;;;;;;3.15;90.36;101169.03;6465785;23;20000;-72
2022/01/31 00:58:51;;;;;;;18.13;7.93;;;;;;;3.15;91.56;101157.03;6466113;23;20304;-74
2022/01/31 01:01:23;;;;;;;24.33;7.77;;;;;;;3.13;92.16;101156.13;6465743;23;20012;-73
2022/01/31 01:03:54;;;;;;;23.87;7.73;;;;;;;3.08;92.94;101143.13;6465399;23;20008;-72
2022/01/31 01:06:25;;;;;;;25.53;8.40;;;;;;;3.13;93.35;101130.38;6465899;23;20009;-74
2022/01/31 01:08:57;;;;;;;28.77;7.60;;;;;;;3.14;93.81;101129.53;6465468;23;20101;-74
2022/01/31 01:11:28;;;;;;;30.67;9.83;;;;;;;3.10;94.88;101132.88;6466003;23;20092;-74
2022/01/31 01:13:59;;;;;;;31.40;8.27;;;;;;;3.18;95.80;101112.44;6465775;23;20040;-75
2022/01/31 01:16:31;;;;;;;26.33;9.00;;;;;;;3.12;97.07;101102.00;6465434;23;20005;-74
2022/01/31 01:19:04;;;;;;;26.00;8.40;;;;;;;3.02;98.79;101098.34;6465773;23;20008;-73
2022/01/31 01:21:35;;;;;;;24.13;9.35;;;;;;;3.04;100.00;101084.66;6465810;23;20008;-74
2022/01/31 01:24:07;;;;;;;27.40;9.13;;;;;;;3.01;100.00;101073.41;6439239;23;20066;-74
2022/01/31 01:26:38;;;;;;;36.00;9.73;;;;;;;3.06;100.00;101061.53;6465632;23;20590;-75
2022/01/31 01:29:10;;;;;;;29.80;10.30;;;;;;;3.08;100.00;101052.13;6465701;23;20011;-76
2022/01/31 01:31:44;;;;;;;27.15;9.65;;;;;;;3.06;100.00;101035.78;6465651;23;20039;-74
2022/01/31 01:34:16;;;;;;;36.08;9.18;;;;;;;3.08;100.00;101031.50;6465572;23;20009;-74
2022/01/31 01:36:50;;;;;;;31.02;9.77;;;;;;;3.06;100.00;101028.91;6465095;23;20000;-75
2022/01/31 01:39:22;;;;;;;41.60;10.85;;;;;;;3.04;100.00;101019.41;6439050;23;20008;-75
2022/01/31 01:41:53;;;;;;;29.07;11.57;;;;;;;3.06;100.00;101000.56;6465617;23;20062;-73
2022/01/31 01:44:43;;;;;;;31.73;11.47;;;;;;;3.13;100.00;101006.72;6465422;23;20014;-73
2022/01/31 01:47:17;;;;;;;42.15;10.48;;;;;;;3.08;100.00;101003.19;6465334;23;20004;-72
2022/01/31 01:49:49;;;;;;;39.75;11.30;;;;;;;3.10;100.00;100980.91;6465269;23;20439;-73
2022/01/31 01:52:21;;;;;;;31.70;11.20;;;;;;;3.09;100.00;100962.00;6465176;23;20015;-74
2022/01/31 01:54:52;;;;;;;35.10;12.33;;;;;;;3.13;100.00;100957.78;6465261;23;20009;-76
2022/01/31 01:57:24;;;;;;;30.50;11.43;;;;;;;3.19;100.00;100949.28;6465278;23;20009;-76
2022/01/31 01:59:57;;;;;;;29.63;11.23;;;;;;;3.18;100.00;100937.28;6465160;23;20044;-75
2022/01/31 02:02:28;;;;;;;26.48;10.00;;;;;;;3.22;100.00;100928.75;6464885;23;20004;-75
2022/01/31 02:04:59;;;;;;;33.57;10.83;;;;;;;3.24;100.00;100906.47;6464913;23;20437;-75
2022/01/31 02:07:31;;;;;;;25.67;9.70;;;;;;;3.27;100.00;100911.69;6464658;23;20005;-75
2022/01/31 02:10:04;;;;;;;32.00;10.30;;;;;;;3.29;100.00;100904.84;6465195;23;20453;-73
2022/01/31 02:12:40;;;;;;;26.58;9.35;;;;;;;3.34;100.00;100903.22;6464908;23;20008;-73
2022/01/31 02:15:13;;;;;;;26.58;10.02;;;;;;;3.34;100.00;100903.22;6437245;23;20009;-74
2022/01/31 02:17:45;;;;;;;25.58;8.98;;;;;;;3.37;100.00;100892.13;6464956;23;20012;-75
2022/01/31 02:20:16;;;;;;;26.07;8.60;;;;;;;3.39;100.00;100885.28;6464309;23;20418;-75
2022/01/31 02:22:49;;;;;;;27.33;10.50;;;;;;;3.44;100.00;100873.34;6465320;23;20015;-73
2022/01/31 02:25:20;;;;;;;21.95;9.98;;;;;;;3.46;100.00;100869.97;6464991;23;20334;-74
2022/01/31 02:27:52;;;;;;;31.77;10.43;;;;;;;3.46;100.00;100866.50;6464823;23;20012;-74
2022/01/31 02:30:23;;;;;;;28.23;10.63;;;;;;;3.52;100.00;100876.91;6465260;23;20841;-73
2022/01/31 02:32:55;;;;;;;26.67;10.00;;;;;;;3.52;100.00;100889.81;6464812;23;20027;-73
2022/01/31 02:35:27;;;;;;;22.90;10.80;;;;;;;3.62;100.00;100876.25;6465434;23;20005;-76
2022/01/31 02:37:58;;;;;;;25.00;11.33;;;;;;;3.63;100.00;100884.84;6465534;23;20030;-75
2022/01/31 02:40:30;;;;;;;24.73;11.10;;;;;;;3.65;100.00;100873.72;6465346;23;20070;-75
2022/01/31 02:43:02;;;;;;;27.88;12.13;;;;;;;3.68;100.00;100861.72;6465253;23;20055;-74
2022/01/31 02:45:33;;;;;;;23.67;12.13;;;;;;;3.70;100.00;100844.56;6465122;23;20013;-74
2022/01/31 02:48:05;;;;;;;27.07;12.60;;;;;;;3.71;100.00;100831.69;6465094;23;20004;-76
2022/01/31 02:50:39;;;;;;;21.80;12.00;;;;;;;3.73;100.00;100827.41;6464364;23;20115;-75
2022/01/31 02:53:14;;;;;;;22.50;12.25;;;;;;;3.79;100.00;100831.81;6464842;23;20330;-74
2022/01/31 02:55:45;;;;;;;22.75;13.40;;;;;;;3.90;100.00;100834.56;6464490;23;20039;-76
2022/01/31 02:58:18;;;;;;;21.00;12.23;;;;;;;4.02;100.00;100824.44;6464987;23;20012;-74
2022/01/31 03:00:50;;;;;;;21.73;12.15;;;;;;;4.06;100.00;100822.75;6465292;23;20059;-72
2022/01/31 03:03:22;;;;;;;24.17;13.15;;;;;;;4.09;100.00;100812.47;6465080;23;20031;-75
2022/01/31 03:05:53;;;;;;;21.40;12.87;;;;;;;4.11;100.00;100810.81;6464646;23;20005;-75
2022/01/31 03:08:25;;;;;;;23.33;13.27;;;;;;;4.17;100.00;100808.28;6464845;23;20015;-76
2022/01/31 03:10:57;;;;;;;29.70;12.70;;;;;;;4.26;100.00;100818.75;6465025;23;20009;-75
2022/01/31 03:13:28;;;;;;;24.43;12.33;;;;;;;4.28;100.00;100821.34;6465074;23;20012;-73
2022/01/31 03:15:59;;;;;;;29.10;12.00;;;;;;;4.36;100.00;100817.16;6464961;23;20012;-76
2022/01/31 03:18:31;;;;;;;25.97;11.80;;;;;;;4.43;100.00;100823.25;6465012;23;20055;-76
2022/01/31 03:21:03;;;;;;;27.85;11.63;;;;;;;4.45;100.00;100798.34;6464735;23;20055;-78
2022/01/31 03:23:35;;;;;;;32.47;10.00;;;;;;;4.44;100.00;100794.88;6464681;23;20012;-74
2022/01/31 03:26:06;;;;;;;21.80;8.17;;;;;;;4.47;100.00;100786.31;6464769;23;20012;-78
2022/01/31 03:28:37;;;;;;;19.10;7.77;;;;;;;4.55;100.00;100787.28;6464611;23;20008;-76
2022/01/31 03:31:09;;;;;;;19.57;7.60;;;;;;;4.51;100.00;100813.91;6437966;23;20028;-75
2022/01/31 03:33:40;;;;;;;29.17;8.80;;;;;;;4.63;100.00;100797.69;6464592;23;20016;-73
2022/01/31 03:36:11;;;;;;;25.17;7.73;;;;;;;4.66;100.00;100788.28;6464161;23;20004;-73
2022/01/31 03:38:43;;;;;;;25.67;7.70;;;;;;;4.72;100.00;100783.19;6464937;23;20430;-75
2022/01/31 03:41:18;;;;;;;19.53;6.27;;;;;;;4.69;100.00;100775.41;6464702;23;20058;-76
2022/01/31 03:43:49;;;;;;;20.95;6.35;;;;;;;4.69;100.00;100767.66;6465897;23;20259;-75
2022/01/31 03:46:21;;;;;;;17.87;7.53;;;;;;;4.64;100.00;100765.88;6464740;23;20005;-76
2022/01/31 03:48:52;;;;;;;25.17;6.70;;;;;;;4.70;100.00;100761.66;6464088;23;20020;-76
2022/01/31 03:51:24;;;;;;;27.90;6.67;;;;;;;4.75;100.00;100759.13;6464677;23;20139;-75
2022/01/31 03:53:55;;;;;;;18.93;5.67;;;;;;;4.79;100.00;100760.00;6464971;23;20008;-74
2022/01/31 03:56:27;;;;;;;26.83;7.03;;;;;;;4.81;100.00;100755.72;6465553;23;20707;-75
2022/01/31 03:58:58;;;;;;;22.10;5.90;;;;;;;4.86;100.00;100764.38;6465100;23;20009;-75
2022/01/31 04:01:29;;;;;;;23.97;5.83;;;;;;;4.87;100.00;100764.38;6466173;23;20411;-75
2022/01/31 04:04:01;;;;;;;24.60;6.20;;;;;;;4.92;100.00;100767.03;6466476;23;20008;-73
2022/01/31 04:06:32;;;;;;;20.20;5.23;;;;;;;5.05;99.63;100773.19;6466329;23;20035;-74
2022/01/31 04:09:04;;;;;;;18.23;6.80;;;;;;;4.99;99.74;100776.59;6466447;23;20015;-73
2022/01/31 04:11:36;;;;;;;26.08;6.72;;;;;;;5.03;99.05;100772.31;6466662;23;20013;-74
2022/01/31 04:14:08;;;;;;;20.27;5.03;;;;;;;5.06;98.41;100778.34;6466561;23;20109;-74
2022/01/31 04:16:39;;;;;;;24.63;5.72;;;;;;;5.22;96.21;100763.88;6466296;23;20594;-73
2022/01/31 04:19:10;;;;;;;31.90;5.70;;;;;;;5.23;95.53;100762.13;6466253;23;20040;-75
2022/01/31 04:21:42;;;;;;;14.90;5.07;;;;;;;5.27;93.55;100757.00;6466356;23;20008;-74
2022/01/31 04:24:19;;;;;;;19.40;4.53;;;;;;;5.33;92.83;100757.91;6465973;23;20013;-74
2022/01/31 04:26:59;;;;;;;14.98;4.53;;;;;;;5.20;93.99;100738.84;6466595;23;20418;-74
2022/01/31 04:29:34;;;;;;;22.27;4.40;;;;;;;5.21;93.15;100754.38;6466433;23;20470;-74
2022/01/31 04:32:06;;;;;;;21.15;4.65;;;;;;;5.19;92.89;100750.91;6466222;23;20008;-74
2022/01/31 04:34:37;;;;;;;22.53;5.10;;;;;;;5.30;90.66;100741.53;6466129;23;20001;-74
2022/01/31 04:37:10;;;;;;;17.47;3.90;;;;;;;5.18;91.83;100751.75;6466348;23;20357;-73
2022/01/31 04:39:41;;;;;;;19.08;6.05;;;;;;;5.25;90.41;100739.78;6466610;23;20031;-74
2022/01/31 04:42:13;;;;;;;17.00;3.93;;;;;;;5.23;89.79;100749.22;6466010;23;20005;-75
2022/01/31 04:44:44;;;;;;;21.57;4.63;;;;;;;5.21;89.60;100754.38;6466290;23;20066;-72
2022/01/31 04:47:15;;;;;;;15.57;4.37;;;;;;;5.20;88.92;100741.44;6465611;23;20492;-74
2022/01/31 04:49:49;;;;;;;15.17;4.13;;;;;;;5.10;89.68;100740.50;6465913;23;20020;-75
2022/01/31 04:52:20;;;;;;;21.40;4.88;;;;;;;5.18;88.24;100741.41;6465828;23;20051;-72
2022/01/31 04:54:51;;;;;;;16.43;4.10;;;;;;;5.07;89.01;100743.94;6465813;23;20438;-74
2022/01/31 04:57:23;;;;;;;22.83;5.73;;;;;;;5.15;87.46;100741.38;6465743;23;20011;-75
2022/01/31 04:59:54;;;;;;;22.43;6.17;;;;;;;5.05;88.67;100747.34;6439815;23;20060;-73
2022/01/31 05:02:26;;;;;;;24.17;4.90;;;;;;;5.11;86.79;100756.00;6466028;23;20009;-76
2022/01/31 05:04:57;;;;;;;16.23;4.73;;;;;;;5.11;86.41;100745.66;6465920;23;20211;-75
2022/01/31 05:07:29;;;;;;;19.23;4.40;;;;;;;5.13;85.92;100748.28;6465782;23;20040;-76
2022/01/31 05:10:00;;;;;;;22.10;4.33;;;;;;;5.11;85.43;100748.25;6465652;23;20011;-74
2022/01/31 05:12:32;;;;;;;21.27;4.47;;;;;;;5.09;85.02;100736.19;6465299;23;20086;-75
2022/01/31 05:15:04;;;;;;;25.33;4.37;;;;;;;5.06;85.54;100736.16;6466030;23;20028;-77
2022/01/31 05:17:36;;;;;;;28.40;4.57;;;;;;;5.11;84.38;100726.72;6465692;23;20100;-72
2022/01/31 05:20:07;;;;;;;20.60;5.00;;;;;;;5.13;84.46;100717.25;6465831;23;20031;-73
2022/01/31 05:22:39;;;;;;;20.77;4.33;;;;;;;5.15;84.14;100712.97;6465312;23;20164;-73
2022/01/31 05:25:10;;;;;;;22.10;6.03;;;;;;;5.21;82.99;100717.34;6465244;23;20391;-73
2022/01/31 05:27:42;;;;;;;20.97;6.13;;;;;;;5.15;83.42;100709.53;6465323;23;20005;-73
2022/01/31 05:30:16;;;;;;;18.20;4.27;;;;;;;5.10;83.86;100710.38;6463650;23;20120;-75
2022/01/31 05:32:47;;;;;;;21.20;4.65;;;;;;;5.14;83.10;100698.34;6465618;23;20016;-75
2022/01/31 05:35:19;;;;;;;16.03;4.07;;;;;;;5.26;81.18;100690.69;6465689;23;20009;-73
2022/01/31 05:37:50;;;;;;;17.70;4.23;;;;;;;5.15;83.10;100692.28;6465036;23;20008;-73
2022/01/31 05:40:21;;;;;;;19.90;5.77;;;;;;;5.07;84.08;100694.84;6464825;23;20009;-75
2022/01/31 05:42:53;;;;;;;25.97;5.17;;;;;;;4.95;85.80;100684.41;6465730;23;20411;-74
2022/01/31 05:45:24;;;;;;;18.73;5.37;;;;;;;4.99;85.17;100677.53;6465594;23;20004;-73
2022/01/31 05:47:56;;;;;;;26.90;6.70;;;;;;;4.88;86.54;100669.72;6465485;23;20319;-73
2022/01/31 05:50:28;;;;;;;20.02;4.78;;;;;;;4.78;87.97;100689.41;6465226;23;20016;-74
2022/01/31 05:52:59;;;;;;;21.27;5.57;;;;;;;4.69;88.94;100692.75;6465258;23;20016;-73
2022/01/31 05:55:31;;;;;;;25.40;6.13;;;;;;;4.44;91.46;100663.25;6465130;23;20009;-73
2022/01/31 05:58:02;;;;;;;21.20;4.60;;;;;;;4.55;90.77;100679.72;6465942;23;20066;-75
2022/01/31 06:00:35;;;;;;;23.53;6.23;;;;;;;4.41;92.76;100685.59;6464976;23;20005;-73
2022/01/31 06:03:06;;;;;;;25.90;5.13;;;;;;;4.28;94.58;100685.47;6464362;23;20036;-73
2022/01/31 06:05:38;;;;;;;20.60;4.93;;;;;;;4.17;96.08;100697.34;6464361;23;20013;-72
2022/01/31 06:08:09;;;;;;;30.07;6.27;;;;;;;4.07;97.15;100706.69;6464691;23;20013;-72
2022/01/31 06:10:44;;;;;;;22.10;4.00;;;;;;;3.96;99.11;100709.16;6464657;23;20012;-72
2022/01/31 06:13:25;;;;;;;21.60;5.15;;;;;;;3.90;100.00;100705.63;6463953;23;20009;-72
2022/01/31 06:15:56;;;;;;;20.23;4.63;;;;;;;3.77;100.00;100713.19;6464453;23;20192;-72
2022/01/31 06:18:28;;;;;;;18.90;4.70;;;;;;;3.70;100.00;100710.50;6464485;23;20373;-72
2022/01/31 06:20:59;;;;;;;18.70;3.93;;;;;;;3.67;100.00;100707.88;6464377;23;20032;-72
2022/01/31 06:23:30;;;;;;;23.27;4.80;;;;;;;3.64;100.00;100704.41;6464028;23;20008;-74
2022/01/31 06:26:02;;;;;;;21.47;5.97;;;;;;;3.70;100.00;100707.91;6464311;23;20434;-72
2022/01/31 06:28:33;;;;;;;22.00;5.00;;;;;;;3.77;100.00;100713.19;6464356;23;20005;-75
2022/01/31 06:31:04;;;;;;;19.20;3.83;;;;;;;3.94;98.98;100712.53;6464204;23;20004;-71
2022/01/31 06:33:36;;;;;;;25.87;7.07;;;;;;;3.92;98.76;100707.38;6464333;23;20009;-73
2022/01/31 06:36:07;;;;;;;22.83;5.83;;;;;;;3.89;98.69;100709.91;6464706;23;20238;-73
2022/01/31 06:38:39;;;;;;;16.83;4.27;;;;;;;3.98;96.77;100694.56;6464392;23;20000;-73
2022/01/31 06:41:11;;;;;;;20.60;5.93;;;;;;;3.97;95.63;100697.13;6456293;23;20090;-72
2022/01/31 06:43:43;;;;;;;25.52;5.25;;;;;;;3.93;95.48;100698.78;6458072;23;20323;-70
2022/01/31 06:46:14;;;;;;;23.93;4.90;;;;;;;3.97;94.77;100705.72;6458479;23;20011;-69
2022/01/31 06:48:46;;;;;;;25.13;4.33;;;;;;;3.89;96.06;100719.38;6458410;23;20127;-71
2022/01/31 06:51:19;;;;;;;;;;;;;;;3.80;96.89;100702.03;6459875;23;20028;-71
2022/01/31 06:53:50;;;;;;;25.35;5.55;;;;;;;3.82;96.58;100705.53;6459386;23;20677;-71
2022/01/31 06:56:29;;;;;;;16.93;4.13;;;;;;;3.91;95.70;100705.66;6459596;23;20008;-71
2022/01/31 06:59:02;;;;;;;25.45;5.57;;;;;;;3.83;96.62;100699.50;6458356;23;20557;-71
2022/01/31 07:01:34;;;;;;;22.48;5.38;;;;;;;3.88;95.75;100703.03;6459252;23;20481;-71
2022/01/31 07:04:05;;;;;;;29.50;7.47;;;;;;;3.83;96.06;100720.13;6459720;23;20090;-69
2022/01/31 07:06:36;;;;;;;24.30;6.10;;;;;;;3.79;96.52;100696.03;6459004;23;20016;-71
2022/01/31 07:09:08;;;;;;;18.67;4.43;;;;;;;3.77;97.00;100717.50;6459267;23;20417;-71
2022/01/31 07:11:41;;;;;;;27.40;6.60;;;;;;;3.76;97.03;100703.72;6459425;23;20023;-71
2022/01/31 07:14:31;;;;;;;22.48;5.43;;;;;;;3.86;95.85;100701.25;6459583;23;20082;-72
2022/01/31 07:17:04;;;;;;;19.02;4.60;;;;;;;3.78;96.65;100696.88;6460269;23;20009;-72
2022/01/31 07:19:38;;;;;;;21.13;4.95;;;;;;;3.83;96.19;100702.09;6460952;23;20423;-71
2022/01/31 07:22:12;;;;;;;22.50;5.25;;;;;;;3.80;96.57;100681.41;6460101;23;20136;-72
2022/01/31 07:24:51;;;;;;;22.48;5.28;;;;;;;3.84;95.89;100715.00;6459663;23;20019;-70
2022/01/31 07:27:23;;;;;;;23.35;5.22;;;;;;;3.88;95.70;100686.66;6458992;23;20447;-71
2022/01/31 07:29:54;;;;;;;23.80;5.70;;;;;;;3.80;96.96;100681.41;6460138;23;20096;-71
2022/01/31 07:32:35;;;;;;;21.43;5.00;;;;;;;3.87;95.74;100672.94;6461643;23;20039;-74
2022/01/31 07:35:10;;;;;;;20.98;4.97;;;;;;;3.88;95.58;100692.72;6461264;23;20016;-72
2022/01/31 07:37:44;;;;;;;30.92;6.20;;;;;;;3.93;95.39;100701.38;6463466;23;20668;-75
2022/01/31 07:40:16;;;;;;;27.48;5.80;;;;;;;3.94;95.02;100704.81;6461345;23;20004;-69
2022/01/31 07:42:47;;;;;;;26.17;5.70;;;;;;;3.97;94.44;100710.00;6461123;23;20054;-70
2022/01/31 07:45:19;;;;;;;29.50;5.93;;;;;;;3.90;95.86;100723.69;6461153;23;20811;-71
2022/01/31 07:47:50;;;;;;;27.13;5.97;;;;;;;3.88;96.50;100733.97;6460991;23;20464;-72
2022/01/31 07:50:22;;;;;;;29.03;6.70;;;;;;;3.81;97.19;100722.69;6460650;23;20012;-71
2022/01/31 07:52:53;;;;;;;24.73;7.10;;;;;;;3.82;97.06;100718.41;6461476;23;20038;-73
2022/01/31 07:55:24;;;;;;;32.63;8.00;;;;;;;3.73;98.47;100718.28;6460629;23;20008;-71
2022/01/31 07:57:56;;;;;;;30.53;8.17;;;;;;;3.72;98.90;100724.28;6461293;23;20127;-71
2022/01/31 08:00:29;;;;;;;28.73;6.17;;;;;;;3.72;99.07;100726.84;6460590;23;20047;-71
2022/01/31 08:03:01;;;;;;;25.20;6.43;;;;;;;3.83;97.51;100717.56;6460680;23;20013;-72
2022/01/31 08:05:32;;;;;;;30.37;9.63;;;;;;;3.83;96.63;100687.50;6460920;23;20014;-72
2022/01/31 08:08:04;;;;;;;29.80;6.57;;;;;;;3.88;96.43;100722.78;6460472;23;20285;-72
2022/01/31 08:10:37;;;;;;;20.23;5.00;;;;;;;3.90;96.08;100710.78;6460673;23;20407;-72
2022/01/31 08:13:09;;;;;;;26.45;7.28;;;;;;;4.02;94.71;100718.66;6460363;23;20008;-72
2022/01/31 08:16:01;;;;;;;28.13;7.33;;;;;;;4.04;94.33;100726.44;6460807;23;20016;-70
2022/01/31 08:18:37;;;;;;;27.20;6.20;;;;;;;3.95;95.43;100719.44;6461028;23;20008;-72
2022/01/31 08:21:11;;;;;;;31.63;6.68;;;;;;;3.96;95.46;100732.38;6460569;23;20091;-72
2022/01/31 08:23:42;;;;;;;27.92;7.28;;;;;;;3.99;95.24;100731.53;6460399;23;20012;-71
2022/01/31 08:26:17;;;;;;;33.80;6.50;;;;;;;4.00;95.19;100731.53;6459922;23;20484;-71
2022/01/31 08:29:02;;;;;;;28.45;7.32;;;;;;;3.87;96.56;100742.56;6460427;23;20031;-72
2022/01/31 08:31:36;;;;;;;28.73;5.78;;;;;;;3.87;97.31;100729.66;6460796;23;20015;-72
2022/01/31 08:36:46;;;;;;;34.85;6.57;;;;;;;3.78;98.46;100725.25;6473427;23;20031;-70
2022/01/31 08:39:22;;;;;;;33.60;8.70;;;;;;;3.85;97.90;100733.94;6460928;23;20804;-72
2022/01/31 08:41:53;;;;;;;35.75;8.45;;;;;;;3.88;97.94;100730.50;6460111;23;20246;-72
2022/01/31 08:44:25;;;;;;;33.50;7.77;;;;;;;3.93;97.30;100740.06;6433697;23;20012;-71
2022/01/31 08:46:56;;;;;;;39.73;7.30;;;;;;;3.93;97.05;100750.38;6460028;23;20438;-71
2022/01/31 08:49:28;;;;;;;30.33;8.00;;;;;;;3.94;97.13;100753.81;6457440;23;20040;-71
2022/01/31 08:51:59;;;;;;;28.43;6.80;;;;;;;3.99;95.87;100740.16;6458584;23;20028;-71
2022/01/31 08:54:31;;;;;;;36.23;7.70;;;;;;;3.90;97.63;100729.69;6459219;23;20004;-71
2022/01/31 08:57:02;;;;;;;33.57;7.80;;;;;;;3.95;97.01;100729.75;6458593;23;20040;-69
2022/01/31 08:59:40;;;;;;;33.80;7.80;;;;;;;4.00;96.10;100741.84;6457940;23;20080;-71
2022/01/31 09:02:17;;;;;;;33.83;7.32;;;;;;;3.93;97.37;100760.69;6457337;23;20011;-71
2022/01/31 09:04:48;;;;;;;36.42;7.28;;;;;;;3.98;97.08;100758.19;6458047;23;20008;-72
2022/01/31 09:07:22;;;;;;;37.23;7.90;;;;;;;3.93;97.98;100771.00;6459977;23;20009;-70
2022/01/31 09:09:54;;;;;;;40.55;8.65;;;;;;;3.91;98.68;100772.72;6459652;23;20043;-72
2022/01/31 09:12:29;;;;;;;31.30;9.73;;;;;;;3.96;98.85;100788.22;6460030;23;20772;-70
2022/01/31 09:15:01;;;;;;;34.17;9.00;;;;;;;3.97;98.41;100777.94;6458468;23;20012;-71
2022/01/31 09:17:35;;;;;;;29.35;8.05;;;;;;;3.85;100.00;100772.63;6459972;23;20478;-71
2022/01/31 09:20:07;;;;;;;28.73;7.18;;;;;;;3.83;100.00;100758.81;6460540;23;20482;-72
2022/01/31 09:22:39;;;;;;;37.15;8.18;;;;;;;3.88;100.00;100788.13;6460075;23;20012;-70
2022/01/31 09:25:12;;;;;;;34.27;7.63;;;;;;;3.96;98.24;100757.28;6459744;23;20084;-70
2022/01/31 09:27:43;;;;;;;25.13;6.43;;;;;;;3.95;98.12;100743.50;6460219;23;20013;-70
2022/01/31 09:30:14;;;;;;;35.03;7.13;;;;;;;4.04;97.07;100773.72;6459643;23;20011;-71
2022/01/31 09:32:46;;;;;;;28.07;6.77;;;;;;;3.95;98.31;100761.56;6459548;23;20035;-69
2022/01/31 09:35:17;;;;;;;36.37;8.13;;;;;;;3.98;97.97;100771.94;6459755;23;20131;-70
2022/01/31 09:37:49;;;;;;;30.30;6.33;;;;;;;4.01;98.14;100758.22;6459773;23;20035;-71
2022/01/31 09:40:23;;;;;;;32.20;6.43;;;;;;;3.99;98.18;100762.47;6459465;23;20382;-69
2022/01/31 09:46:02;;;;;;;31.58;7.45;;;;;;;4.09;96.87;100786.69;6459565;23;20017;-71
2022/01/31 09:48:36;;;;;;;36.67;7.07;;;;;;;4.03;98.00;100796.94;6459702;23;20012;-70
2022/01/31 09:51:07;;;;;;;34.65;7.47;;;;;;;3.99;97.97;100801.16;6458659;23;20016;-72
2022/01/31 09:53:44;;;;;;;32.70;7.17;;;;;;;3.97;98.83;100813.19;6460056;23;20026;-73
2022/01/31 09:56:21;;;;;;;34.38;8.48;;;;;;;3.92;98.66;100838.91;6459539;23;20934;-70
2022/01/31 09:58:55;;;;;;;27.45;7.03;;;;;;;3.83;99.78;100815.53;6458672;23;20011;-72
2022/01/31 10:01:35;;;;;;;50.47;10.15;;;;;;;3.79;100.00;100836.97;6459686;23;20403;-70
2022/01/31 10:04:17;;;;;;;33.90;8.18;;;;;;;3.73;100.00;100836.88;6432072;23;20008;-71
2022/01/31 10:06:54;;;;;;;42.72;9.48;;;;;;;3.71;100.00;100851.47;6458907;23;20004;-72
2022/01/31 10:09:26;;;;;;;39.92;9.82;;;;;;;3.72;100.00;100866.06;6459300;23;20005;-71
2022/01/31 10:12:22;;;;;;;43.63;9.93;;;;;;;3.74;100.00;100860.09;6459259;23;20438;-72
2022/01/31 10:17:45;;;;;;;48.28;10.52;;;;;;;3.78;100.00;100842.97;6459333;23;20012;-70
2022/01/31 10:20:26;;;;;;;;;;;;;;;3.72;100.00;100835.13;6460315;23;20005;-72
2022/01/31 10:23:12;;;;;;;45.17;11.55;;;;;;;3.84;100.00;100845.66;6459299;23;19912;-72
2022/01/31 10:25:43;;;;;;;45.50;9.10;;;;;;;3.85;99.27;100855.13;6459232;23;20004;-71
2022/01/31 10:28:21;;;;;;;44.23;10.40;;;;;;;3.97;98.30;100886.25;6459295;23;20331;-70
2022/01/31 10:30:52;;;;;;;50.80;11.85;;;;;;;4.00;96.72;100878.56;6458998;23;20013;-71
2022/01/31 10:33:28;;;;;;;46.53;9.27;;;;;;;4.03;95.39;100876.91;6459048;23;20023;-72
2022/01/31 10:36:00;;;;;;;49.72;12.45;;;;;;;4.05;94.27;100890.69;6459002;23;20013;-72
2022/01/31 10:38:37;;;;;;;43.58;9.95;;;;;;;4.06;93.25;100893.28;6459209;23;20814;-70
2022/01/31 10:44:55;;;;;;;40.70;8.70;;;;;;;4.06;92.32;100889.81;6459006;23;20016;-73
2022/01/31 10:53:11;;;;;;;42.45;9.15;;;;;;;4.11;92.06;100898.53;6459474;23;20016;-71
2022/01/31 10:55:53;;;;;;;47.40;11.70;;;;;;;4.16;91.06;100908.06;6459319;23;20001;-71
2022/01/31 10:58:24;;;;;;;59.45;11.75;;;;;;;4.11;92.22;100916.59;6458674;23;20040;-70
2022/01/31 11:01:11;;;;;;;51.97;9.57;;;;;;;4.01;94.20;100910.41;6459123;23;20448;-72
2022/01/31 11:03:45;;;;;;;40.03;10.18;;;;;;;4.00;94.10;100919.84;6459218;23;20016;-71
2022/01/31 11:06:17;;;;;;;42.08;10.07;;;;;;;4.06;92.98;100921.66;6432166;23;20013;-73
2022/01/31 11:08:49;;;;;;;38.50;9.67;;;;;;;4.01;93.84;100911.28;6459846;23;20416;-71
2022/01/31 11:11:20;;;;;;;44.13;10.20;;;;;;;4.02;93.50;100919.88;6461769;23;20442;-71
2022/01/31 11:13:54;;;;;;;44.17;9.40;;;;;;;4.03;93.65;100926.78;6461207;23;20009;-71
2022/01/31 11:16:27;;;;;;;46.05;9.43;;;;;;;3.99;94.48;100931.03;6461689;23;20671;-71
2022/01/31 11:19:02;;;;;;;45.85;10.15;;;;;;;4.03;94.15;100934.50;6461115;23;20008;-72
2022/01/31 11:21:40;;;;;;;45.08;10.25;;;;;;;4.02;95.10;100945.66;6461512;23;20657;-71
2022/01/31 11:24:27;;;;;;;39.38;8.77;;;;;;;4.05;94.60;100930.22;6461524;23;20304;-71
2022/01/31 11:27:03;;;;;;;41.28;9.80;;;;;;;4.01;96.14;100947.38;6461596;23;20104;-71
2022/01/31 11:29:40;;;;;;;47.55;10.43;;;;;;;4.08;95.11;100938.03;6461632;23;20070;-72
2022/01/31 11:32:12;;;;;;;38.53;8.68;;;;;;;4.05;96.86;100950.00;6461813;23;20522;-71
2022/01/31 11:34:45;;;;;;;51.20;11.17;;;;;;;4.11;94.75;100945.81;6461091;23;20108;-72
2022/01/31 11:37:18;;;;;;;47.03;9.60;;;;;;;4.10;93.95;100933.75;6461350;23;20009;-70
2022/01/31 11:40:00;;;;;;;39.17;10.48;;;;;;;4.13;94.17;100964.75;6460493;23;20100;-71
2022/01/31 11:42:34;;;;;;;40.50;8.80;;;;;;;4.11;94.64;100950.97;6461016;23;20087;-70
2022/01/31 11:45:16;;;;;;;38.78;10.98;;;;;;;4.08;94.41;100968.97;6460911;23;20081;-71
2022/01/31 11:47:49;;;;;;;43.55;10.15;;;;;;;4.00;95.99;100974.00;6461204;23;19996;-71
2022/01/31 11:50:23;;;;;;;48.67;9.82;;;;;;;4.09;94.67;100951.78;6460764;23;20019;-72
2022/01/31 11:53:00;;;;;;;48.45;12.93;;;;;;;4.04;95.38;100995.56;6460977;23;20008;-73
2022/01/31 11:55:41;;;;;;;45.58;11.02;;;;;;;4.02;96.00;100979.19;6460899;23;20007;-73
2022/01/31 11:58:15;;;;;;;55.38;10.75;;;;;;;4.00;96.31;100989.47;6461646;23;20422;-71
2022/01/31 12:00:48;;;;;;;50.55;13.35;;;;;;;4.00;96.32;100971.44;6460487;23;20012;-71
2022/01/31 12:03:20;;;;;;;67.57;14.27;;;;;;;3.99;95.85;100981.72;6460456;23;20044;-71
2022/01/31 12:05:53;;;;;;;57.70;11.37;;;;;;;3.97;96.81;100989.44;6460571;23;20039;-72